createdAt,value
2018-06-12T00:02:14.298Z,91.00
2018-06-12T00:04:46.077Z,91.10
2018-06-12T00:07:17.694Z,91.10
2018-06-12T00:09:49.330Z,91.10
2018-06-12T00:12:20.992Z,91.10
2018-06-12T00:14:52.563Z,91.10
2018-06-12T00:17:24.115Z,91.10
2018-06-12T00:19:55.852Z,91.10
2018-06-12T00:22:27.509Z,91.10
2018-06-12T00:24:59.100Z,91.10
2018-06-12T00:27:30.916Z,91.00
2018-06-12T00:30:02.584Z,91.00
2018-06-12T00:32:34.134Z,91.10
2018-06-12T00:35:05.798Z,91.00
2018-06-12T00:37:37.374Z,91.00
2018-06-12T00:40:09.253Z,91.00
2018-06-12T00:42:41.173Z,91.00
2018-06-12T00:45:12.978Z,91.10
2018-06-12T00:47:44.692Z,91.00
2018-06-12T00:50:16.265Z,91.00
2018-06-12T00:52:47.919Z,91.10
2018-06-12T00:55:19.564Z,91.10
2018-06-12T00:57:51.101Z,91.20
2018-06-12T01:00:22.867Z,91.20
2018-06-12T01:02:54.453Z,91.30
2018-06-12T01:05:25.986Z,91.20
2018-06-12T01:07:57.631Z,91.30
2018-06-12T01:10:30.218Z,91.30
2018-06-12T01:13:01.865Z,91.40
2018-06-12T01:15:33.528Z,91.20
2018-06-12T01:18:05.109Z,91.10
2018-06-12T01:20:36.735Z,90.80
2018-06-12T01:23:08.389Z,90.80
2018-06-12T01:25:40.046Z,90.80
2018-06-12T01:28:11.705Z,90.70
2018-06-12T01:30:43.290Z,90.80
2018-06-12T01:33:15.087Z,90.60
2018-06-12T01:35:46.706Z,90.40
2018-06-12T01:38:18.534Z,90.30
2018-06-12T01:40:50.191Z,90.00
2018-06-12T01:43:21.772Z,89.80
2018-06-12T01:45:53.397Z,89.60
2018-06-12T01:48:25.068Z,89.70
2018-06-12T01:50:56.606Z,89.60
2018-06-12T01:53:28.369Z,89.40
2018-06-12T01:56:00.030Z,89.60
2018-06-12T01:58:31.690Z,90.00
2018-06-12T02:01:03.244Z,89.30
2018-06-12T02:03:35.026Z,89.20
2018-06-12T02:06:06.781Z,88.80
2018-06-12T02:08:38.477Z,88.70
2018-06-12T02:11:10.097Z,88.70
2018-06-12T02:13:41.779Z,88.70
2018-06-12T02:16:13.590Z,88.30
2018-06-12T02:18:45.176Z,87.80
2018-06-12T02:21:16.796Z,87.70
2018-06-12T02:26:19.590Z,88.00
2018-06-12T02:28:51.429Z,88.10
2018-06-12T02:31:23.321Z,88.30
2018-06-12T02:33:54.984Z,88.00
2018-06-12T02:36:27.003Z,88.10
2018-06-12T02:38:58.629Z,87.70
2018-06-12T02:41:30.729Z,87.80
2018-06-12T02:44:02.433Z,87.40
2018-06-12T02:46:34.138Z,86.60
2018-06-12T02:49:06.261Z,86.30
2018-06-12T02:51:38.048Z,86.20
2018-06-12T02:54:10.273Z,85.90
2018-06-12T02:56:41.833Z,85.90
2018-06-12T02:59:13.498Z,86.00
2018-06-12T03:01:45.142Z,85.50
2018-06-12T03:04:16.693Z,85.60
2018-06-12T03:06:48.441Z,85.90
2018-06-12T03:09:20.007Z,85.80
2018-06-12T03:11:51.572Z,85.60
2018-06-12T03:14:23.143Z,86.00
2018-06-12T03:16:54.836Z,86.30
2018-06-12T03:19:26.685Z,86.50
2018-06-12T03:21:58.310Z,86.60
2018-06-12T03:24:30.170Z,86.30
2018-06-12T03:27:01.685Z,86.00
2018-06-12T03:29:33.253Z,87.00
2018-06-12T03:32:05.129Z,87.00
2018-06-12T03:37:07.744Z,85.70
2018-06-12T03:39:39.266Z,85.80
2018-06-12T03:42:10.845Z,85.80
2018-06-12T03:44:42.517Z,85.20
2018-06-12T03:47:14.131Z,85.30
2018-06-12T03:49:45.796Z,85.90
2018-06-12T03:52:24.729Z,86.00
2018-06-12T03:54:56.401Z,86.20
2018-06-12T03:57:28.064Z,85.60
2018-06-12T03:59:59.642Z,86.00
2018-06-12T04:02:31.359Z,86.00
2018-06-12T04:05:02.938Z,85.90
2018-06-12T04:07:34.580Z,85.90
2018-06-12T04:10:06.209Z,85.70
2018-06-12T04:12:37.869Z,86.10
2018-06-12T04:17:40.496Z,86.40
2018-06-12T04:20:12.110Z,86.50
2018-06-12T04:22:43.779Z,86.30
2018-06-12T04:25:15.362Z,85.80
2018-06-12T04:27:47.093Z,86.90
2018-06-12T04:30:18.680Z,86.20
2018-06-12T04:32:50.406Z,86.70
2018-06-12T04:35:22.078Z,86.80
2018-06-12T04:37:53.648Z,86.20
2018-06-12T04:40:25.439Z,85.70
2018-06-12T04:42:57.147Z,85.90
2018-06-12T04:45:28.689Z,85.30
2018-06-12T04:48:00.454Z,85.10
2018-06-12T04:50:32.034Z,85.20
2018-06-12T04:53:03.663Z,85.10
2018-06-12T04:55:35.416Z,85.20
2018-06-12T04:58:07.080Z,85.20
2018-06-12T05:00:38.737Z,85.10
2018-06-12T05:03:10.290Z,84.40
2018-06-12T05:05:41.942Z,84.30
2018-06-12T05:08:13.598Z,84.60
2018-06-12T05:10:45.253Z,84.40
2018-06-12T05:13:16.909Z,84.60
2018-06-12T05:15:48.668Z,84.00
2018-06-12T05:18:20.239Z,85.00
2018-06-12T05:20:51.793Z,83.40
2018-06-12T05:23:23.329Z,84.20
2018-06-12T05:28:26.029Z,83.80
2018-06-12T05:30:57.623Z,84.20
2018-06-12T05:33:29.225Z,83.90
2018-06-12T05:36:00.998Z,83.50
2018-06-12T05:38:32.595Z,82.90
2018-06-12T05:41:04.225Z,83.60
2018-06-12T05:43:35.919Z,82.60
2018-06-12T05:46:07.552Z,83.00
2018-06-12T05:48:39.073Z,83.00
2018-06-12T05:51:10.738Z,83.70
2018-06-12T05:53:42.383Z,85.00
2018-06-12T05:56:14.040Z,84.10
2018-06-12T05:58:45.701Z,83.90
2018-06-12T06:01:17.282Z,83.30
2018-06-12T06:03:49.021Z,83.20
2018-06-12T06:06:20.654Z,83.30
2018-06-12T06:08:52.330Z,83.30
2018-06-12T06:11:23.922Z,83.30
2018-06-12T06:13:55.648Z,82.20
2018-06-12T06:16:27.233Z,82.20
2018-06-12T06:18:58.890Z,81.70
2018-06-12T06:21:30.517Z,82.40
2018-06-12T06:24:02.401Z,82.10
2018-06-12T06:26:34.081Z,81.70
2018-06-12T06:29:05.716Z,82.20
2018-06-12T06:31:37.331Z,81.90
2018-06-12T06:34:08.878Z,81.60
2018-06-12T06:36:40.560Z,80.70
2018-06-12T06:39:12.128Z,80.10
2018-06-12T07:08:27.064Z,77.80
2018-06-12T07:10:58.688Z,78.20
2018-06-12T07:13:30.417Z,78.10
2018-06-12T07:16:01.961Z,78.30
2018-06-12T07:18:33.625Z,77.40
2018-06-12T07:21:09.384Z,77.50
2018-06-12T07:23:41.037Z,77.50
2018-06-12T07:26:12.701Z,77.70
2018-06-12T07:28:44.272Z,77.50
2018-06-12T07:31:16.014Z,77.70
2018-06-12T07:33:47.561Z,76.50
2018-06-12T07:36:19.222Z,76.30
2018-06-12T07:38:50.761Z,76.30
2018-06-12T07:41:22.359Z,76.60
2018-06-12T07:43:54.093Z,75.90
2018-06-12T07:46:25.714Z,75.90
2018-06-12T07:48:57.299Z,76.10
2018-06-12T07:51:28.855Z,76.10
2018-06-12T07:54:00.517Z,75.60
2018-06-12T07:56:32.220Z,76.20
2018-06-12T07:59:04.025Z,75.40
2018-06-12T08:01:35.689Z,76.00
2018-06-12T08:04:07.245Z,76.20
2018-06-12T08:06:38.828Z,76.20
2018-06-12T08:09:10.554Z,75.30
2018-06-12T08:11:42.150Z,75.90
2018-06-12T08:14:13.793Z,75.60
2018-06-12T08:16:45.525Z,75.10
2018-06-12T08:19:17.120Z,75.60
2018-06-12T08:21:48.831Z,74.60
2018-06-12T08:24:20.549Z,75.20
2018-06-12T08:26:52.178Z,75.10
2018-06-12T08:29:23.903Z,75.40
2018-06-12T08:31:55.527Z,76.00
2018-06-12T08:34:27.133Z,76.70
2018-06-12T08:36:58.825Z,76.90
2018-06-12T08:39:30.421Z,76.30
2018-06-12T08:42:02.082Z,75.70
2018-06-12T08:44:33.624Z,75.40
2018-06-12T08:47:05.224Z,75.60
2018-06-12T08:49:36.953Z,75.80
2018-06-12T08:52:08.543Z,76.40
2018-06-12T08:54:40.260Z,76.00
2018-06-12T08:57:11.814Z,76.50
2018-06-12T08:59:43.472Z,77.10
2018-06-12T09:02:15.193Z,77.00
2018-06-12T09:04:46.782Z,76.30
2018-06-12T09:07:18.445Z,76.40
2018-06-12T09:09:49.988Z,76.70
2018-06-12T09:12:21.683Z,77.50
2018-06-12T09:14:53.372Z,75.70
2018-06-12T09:17:25.067Z,76.20
2018-06-12T09:19:56.747Z,74.90
2018-06-12T09:22:28.438Z,73.30
2018-06-12T09:25:00.054Z,73.00
2018-06-12T09:27:35.789Z,72.70
2018-06-12T09:30:07.467Z,73.00
2018-06-12T09:32:38.991Z,72.10
2018-06-12T09:35:10.664Z,71.50
2018-06-12T09:37:42.317Z,72.50
2018-06-12T09:40:13.866Z,72.30
2018-06-12T09:42:45.536Z,72.60
2018-06-12T09:45:17.389Z,72.50
2018-06-12T09:47:48.969Z,71.60
2018-06-12T09:50:20.521Z,71.80
2018-06-12T09:52:52.145Z,70.00
2018-06-12T09:55:23.808Z,69.30
2018-06-12T09:57:55.386Z,70.70
2018-06-12T10:00:32.137Z,70.70
2018-06-12T10:03:03.795Z,70.30
2018-06-12T10:05:35.661Z,71.20
2018-06-12T10:08:07.416Z,70.40
2018-06-12T10:10:38.970Z,69.50
2018-06-12T10:13:10.521Z,69.70
2018-06-12T10:15:42.181Z,69.40
2018-06-12T10:18:13.833Z,70.00
2018-06-12T10:20:45.411Z,68.80
2018-06-12T10:23:16.967Z,69.40
2018-06-12T10:25:48.605Z,69.60
2018-06-12T10:28:20.169Z,69.40
2018-06-12T10:30:51.911Z,68.80
2018-06-12T10:33:23.609Z,66.90
2018-06-12T10:35:55.434Z,66.90
2018-06-12T10:38:27.030Z,66.80
2018-06-12T10:40:58.741Z,65.10
2018-06-12T10:43:30.504Z,65.10
2018-06-12T10:46:02.261Z,63.90
2018-06-12T10:48:33.976Z,62.50
2018-06-12T10:51:05.626Z,63.70
2018-06-12T10:53:37.339Z,65.20
2018-06-12T10:56:08.999Z,65.10
2018-06-12T10:58:40.644Z,64.90
2018-06-12T11:01:12.153Z,64.60
2018-06-12T11:03:43.810Z,65.30
2018-06-12T11:06:15.444Z,65.90
2018-06-12T11:08:47.070Z,66.00
2018-06-12T11:11:18.649Z,66.20
2018-06-12T11:13:50.280Z,65.50
2018-06-12T11:16:21.940Z,65.80
2018-06-12T11:18:53.587Z,66.40
2018-06-12T11:21:25.124Z,66.80
2018-06-12T11:23:56.856Z,66.30
2018-06-12T11:26:28.471Z,64.10
2018-06-12T11:29:00.110Z,62.30
2018-06-12T11:31:31.812Z,63.50
2018-06-12T11:34:03.541Z,63.50
2018-06-12T11:36:35.187Z,64.10
2018-06-12T11:39:08.455Z,65.60
2018-06-12T11:41:40.063Z,66.50
2018-06-12T11:44:11.688Z,66.30
2018-06-12T11:46:43.225Z,66.30
2018-06-12T11:49:14.893Z,64.70
2018-06-12T11:51:46.463Z,64.00
2018-06-12T11:54:18.111Z,63.00
2018-06-12T11:56:49.766Z,61.80
2018-06-12T11:59:21.444Z,62.30
2018-06-12T12:01:53.080Z,64.10
2018-06-12T12:04:24.775Z,64.10
2018-06-12T12:06:56.607Z,62.40
2018-06-12T12:09:28.144Z,62.80
2018-06-12T12:11:59.909Z,63.80
2018-06-12T12:14:31.565Z,64.40
2018-06-12T12:17:03.272Z,64.50
2018-06-12T12:19:35.038Z,63.30
2018-06-12T12:22:06.842Z,62.90
2018-06-12T12:24:38.501Z,63.90
2018-06-12T12:27:10.212Z,64.60
2018-06-12T12:29:41.810Z,64.80
2018-06-12T12:32:13.469Z,65.00
2018-06-12T12:34:45.022Z,65.90
2018-06-12T12:37:16.578Z,66.50
2018-06-12T12:39:48.121Z,68.00
2018-06-12T12:42:19.716Z,68.00
2018-06-12T12:44:51.333Z,67.60
2018-06-12T12:47:23.033Z,67.30
2018-06-12T12:49:54.761Z,67.10
2018-06-12T12:52:26.412Z,66.70
2018-06-12T12:54:58.113Z,66.50
2018-06-12T12:57:29.781Z,66.50
2018-06-12T13:00:01.372Z,66.40
2018-06-12T13:02:32.919Z,65.80
2018-06-12T13:05:04.802Z,66.60
2018-06-12T13:07:36.297Z,67.50
2018-06-12T13:10:08.040Z,67.70
2018-06-12T13:12:39.765Z,66.80
2018-06-12T13:15:11.423Z,67.40
2018-06-12T13:17:42.957Z,67.80
2018-06-12T13:20:14.664Z,67.10
2018-06-12T13:22:46.248Z,67.20
2018-06-12T13:25:17.954Z,66.90
2018-06-12T13:27:49.445Z,67.70
2018-06-12T13:30:21.062Z,67.30
2018-06-12T13:32:52.557Z,67.30
2018-06-12T13:35:24.189Z,67.30
2018-06-12T13:37:55.924Z,67.40
2018-06-12T13:40:27.476Z,66.90
2018-06-12T13:42:59.176Z,66.70
2018-06-12T13:45:30.956Z,66.70
2018-06-12T13:48:02.545Z,67.30
2018-06-12T13:50:34.209Z,67.10
2018-06-12T13:53:05.880Z,67.00
2018-06-12T13:55:37.448Z,67.00
2018-06-12T13:58:09.174Z,66.90
2018-06-12T14:00:40.722Z,66.30
2018-06-12T14:03:12.345Z,66.70
2018-06-12T14:05:44.049Z,65.60
2018-06-12T14:08:15.548Z,66.00
2018-06-12T14:10:47.308Z,65.60
2018-06-12T14:13:18.961Z,65.50
2018-06-12T14:15:50.726Z,63.90
2018-06-12T14:18:22.278Z,62.70
2018-06-12T14:20:53.976Z,63.80
2018-06-12T14:23:25.485Z,64.80
2018-06-12T14:25:57.084Z,64.50
2018-06-12T14:28:28.593Z,64.50
2018-06-12T14:31:00.225Z,64.80
2018-06-12T14:33:31.816Z,64.00
2018-06-12T14:36:03.441Z,62.40
2018-06-12T14:38:35.164Z,62.90
2018-06-12T14:41:06.712Z,62.40
2018-06-12T14:43:38.386Z,64.30
2018-06-12T14:46:09.959Z,64.60
2018-06-12T14:48:41.590Z,64.20
2018-06-12T14:51:13.165Z,62.90
2018-06-12T14:53:44.897Z,63.40
2018-06-12T14:56:16.553Z,61.90
2018-06-12T14:58:48.123Z,62.50
2018-06-12T15:01:19.821Z,62.50
2018-06-12T15:03:51.421Z,63.00
2018-06-12T15:08:54.051Z,63.80
2018-06-12T15:11:25.782Z,64.10
2018-06-12T15:13:57.353Z,64.10
2018-06-12T15:19:00.762Z,64.30
2018-06-12T15:21:32.400Z,64.60
2018-06-12T15:24:03.958Z,65.50
2018-06-12T15:26:35.542Z,64.60
2018-06-12T15:29:07.166Z,65.00
2018-06-12T15:31:38.755Z,65.70
2018-06-12T15:34:10.443Z,65.70
2018-06-12T15:36:42.029Z,65.70
2018-06-12T15:39:13.609Z,66.10
2018-06-12T15:41:45.232Z,66.30
2018-06-12T15:44:16.895Z,66.70
2018-06-12T15:46:48.566Z,67.10
2018-06-12T15:49:20.142Z,67.50
2018-06-12T15:51:51.875Z,67.90
2018-06-12T15:54:23.526Z,67.30
2018-06-12T15:56:55.108Z,67.50
2018-06-12T15:59:26.802Z,67.20
2018-06-12T16:01:58.387Z,67.60
2018-06-12T16:04:30.059Z,67.90
2018-06-12T16:07:01.701Z,67.80
2018-06-12T16:09:33.288Z,68.00
2018-06-12T16:12:04.821Z,68.30
2018-06-12T16:14:36.476Z,67.60
2018-06-12T16:17:08.177Z,68.90
2018-06-12T16:19:39.776Z,69.00
2018-06-12T16:22:11.448Z,68.30
2018-06-12T16:24:43.097Z,68.20
2018-06-12T16:27:14.675Z,68.50
2018-06-12T16:29:46.207Z,69.30
2018-06-12T16:32:17.782Z,68.60
2018-06-12T16:34:49.320Z,68.60
2018-06-12T16:37:20.978Z,67.90
2018-06-12T16:39:52.525Z,68.00
2018-06-12T16:42:24.114Z,67.90
2018-06-12T16:44:55.833Z,68.10
2018-06-12T16:47:27.422Z,67.90
2018-06-12T16:49:59.251Z,67.70
2018-06-12T16:52:30.860Z,68.00
2018-06-12T16:55:02.492Z,69.00
2018-06-12T16:57:34.133Z,68.10
2018-06-12T17:00:05.970Z,67.90
2018-06-12T17:02:37.641Z,68.50
2018-06-12T17:05:09.313Z,68.30
2018-06-12T17:07:40.964Z,68.00
2018-06-12T17:10:12.541Z,67.90
2018-06-12T17:12:44.268Z,67.50
2018-06-12T17:15:15.917Z,68.00
2018-06-12T17:17:47.499Z,68.10
2018-06-12T17:20:19.022Z,68.60
2018-06-12T17:22:50.609Z,68.50
2018-06-12T17:25:22.242Z,68.90
2018-06-12T17:27:53.817Z,68.90
2018-06-12T17:30:25.344Z,68.90
2018-06-12T17:32:57.014Z,68.50
2018-06-12T17:35:28.766Z,68.80
2018-06-12T17:38:00.425Z,68.70
2018-06-12T17:40:31.956Z,68.70
2018-06-12T17:43:03.633Z,68.80
2018-06-12T17:45:35.203Z,68.90
2018-06-12T17:48:06.836Z,68.80
2018-06-12T17:50:38.696Z,68.70
2018-06-12T17:53:10.361Z,68.70
2018-06-12T17:55:42.014Z,69.00
2018-06-12T17:58:13.561Z,69.20
2018-06-12T18:00:45.114Z,69.90
2018-06-12T18:03:16.715Z,69.50
2018-06-12T18:05:48.498Z,70.00
2018-06-12T18:08:20.121Z,70.00
2018-06-12T18:10:51.831Z,70.00
2018-06-12T18:13:23.638Z,70.00
2018-06-12T18:15:55.420Z,69.70
2018-06-12T18:18:27.135Z,70.70
2018-06-12T18:20:58.710Z,70.20
2018-06-12T18:23:30.745Z,70.10
2018-06-12T18:26:02.333Z,69.80
2018-06-12T18:28:34.120Z,69.80
2018-06-12T18:31:05.748Z,69.70
2018-06-12T18:33:37.405Z,69.80
2018-06-12T18:36:09.244Z,69.90
2018-06-12T18:38:40.777Z,70.10
2018-06-12T18:41:12.346Z,70.30
2018-06-12T18:43:43.921Z,69.00
2018-06-12T18:46:15.855Z,69.10
2018-06-12T18:48:47.525Z,69.30
2018-06-12T18:51:19.178Z,69.40
2018-06-12T18:53:50.890Z,68.40
2018-06-12T18:56:22.488Z,69.30
2018-06-12T18:58:54.205Z,69.40
2018-06-12T19:01:25.833Z,69.40
2018-06-12T19:03:57.569Z,69.20
2018-06-12T19:06:29.290Z,68.70
2018-06-12T19:09:00.978Z,68.80
2018-06-12T19:11:32.557Z,69.10
2018-06-12T19:14:04.386Z,69.70
2018-06-12T19:16:36.043Z,68.80
2018-06-12T19:19:07.641Z,68.90
2018-06-12T19:21:39.397Z,69.70
2018-06-12T19:24:11.042Z,69.20
2018-06-12T19:26:42.694Z,69.00
2018-06-12T19:29:14.342Z,68.70
2018-06-12T19:31:45.912Z,68.70
2018-06-12T19:34:17.533Z,68.70
2018-06-12T19:36:49.194Z,68.90
2018-06-12T19:39:20.788Z,68.70
2018-06-12T19:41:52.405Z,68.90
2018-06-12T19:44:23.961Z,68.70
2018-06-12T19:46:55.627Z,69.00
2018-06-12T19:49:27.329Z,68.90
2018-06-12T19:51:58.925Z,69.00
2018-06-12T19:54:30.629Z,69.00
2018-06-12T19:57:02.369Z,69.00
2018-06-12T19:59:34.100Z,69.00
2018-06-12T20:02:05.769Z,68.80
2018-06-12T20:04:37.417Z,68.70
2018-06-12T20:07:08.873Z,68.80
2018-06-12T20:09:40.425Z,69.00
2018-06-12T20:12:12.077Z,69.00
2018-06-12T20:14:43.643Z,69.20
2018-06-12T20:17:15.165Z,69.50
2018-06-12T20:19:46.911Z,69.20
2018-06-12T20:22:18.607Z,69.40
2018-06-12T20:24:50.243Z,69.50
2018-06-12T20:27:21.829Z,69.80
2018-06-12T20:29:53.364Z,69.60
2018-06-12T20:32:25.688Z,69.50
2018-06-12T20:34:57.325Z,70.60
2018-06-12T20:37:28.942Z,70.00
2018-06-12T20:40:00.707Z,70.00
2018-06-12T20:42:32.281Z,70.10
2018-06-12T20:45:03.878Z,70.10
2018-06-12T20:47:35.469Z,70.10
2018-06-12T20:50:07.059Z,70.10
2018-06-12T20:52:38.809Z,71.10
2018-06-12T20:55:10.573Z,70.50
2018-06-12T20:57:42.366Z,70.60
2018-06-12T21:00:13.971Z,70.50
2018-06-12T21:02:45.714Z,70.40
2018-06-12T21:05:17.369Z,70.30
2018-06-12T21:07:49.185Z,70.20
2018-06-12T21:10:20.820Z,70.20
2018-06-12T21:12:52.437Z,70.10
2018-06-12T21:15:24.001Z,70.30
2018-06-12T21:17:55.706Z,70.50
2018-06-12T21:20:27.421Z,70.50
2018-06-12T21:22:59.069Z,70.60
2018-06-12T21:25:30.622Z,70.60
2018-06-12T21:28:02.345Z,70.60
2018-06-12T21:30:34.044Z,70.60
2018-06-12T21:33:05.622Z,70.80
2018-06-12T21:35:37.349Z,71.20
2018-06-12T21:38:08.892Z,71.50
2018-06-12T21:40:40.561Z,71.60
2018-06-12T21:43:12.286Z,71.80
2018-06-12T21:45:43.868Z,72.20
2018-06-12T21:48:15.416Z,72.20
2018-06-12T21:50:47.093Z,72.10
2018-06-12T21:53:18.751Z,72.00
2018-06-12T21:55:50.329Z,71.90
2018-06-12T21:58:22.049Z,71.60
2018-06-12T22:00:53.709Z,71.20
2018-06-12T22:03:25.362Z,70.90
2018-06-12T22:05:57.129Z,71.30
2018-06-12T22:08:28.702Z,71.40
2018-06-12T22:11:00.341Z,71.60
2018-06-12T22:13:31.889Z,72.30
2018-06-12T22:16:03.469Z,71.70
2018-06-12T22:18:35.101Z,71.40
2018-06-12T22:21:06.769Z,71.20
2018-06-12T22:23:38.413Z,70.50
2018-06-12T22:26:09.997Z,71.00
2018-06-12T22:28:41.730Z,71.60
2018-06-12T22:31:13.283Z,71.10
2018-06-12T22:33:44.931Z,71.40
2018-06-12T22:36:16.521Z,71.10
2018-06-12T22:38:48.211Z,71.60
2018-06-12T22:41:19.794Z,71.40
2018-06-12T22:43:51.376Z,71.50
2018-06-12T22:46:23.072Z,71.30
2018-06-12T22:48:54.905Z,70.80
2018-06-12T22:51:26.649Z,70.90
2018-06-12T22:53:58.284Z,71.00
2018-06-12T22:56:29.880Z,70.80
2018-06-12T22:59:01.674Z,70.90
2018-06-12T23:01:33.262Z,71.00
2018-06-12T23:04:04.917Z,71.00
2018-06-12T23:06:36.728Z,70.70
2018-06-12T23:09:10.036Z,70.90
2018-06-12T23:11:41.881Z,70.50
2018-06-12T23:14:13.695Z,70.30
2018-06-12T23:16:45.458Z,70.30
2018-06-12T23:19:17.008Z,71.10
2018-06-12T23:24:33.072Z,69.60
2018-06-12T23:27:04.738Z,69.40
2018-06-12T23:29:36.443Z,69.10
2018-06-12T23:32:08.013Z,69.20
2018-06-12T23:34:39.643Z,68.80
2018-06-12T23:37:11.195Z,68.40
2018-06-12T23:39:42.859Z,68.80
2018-06-12T23:42:14.401Z,67.90
2018-06-12T23:44:46.009Z,67.70
2018-06-12T23:47:17.729Z,67.80
2018-06-12T23:52:20.468Z,67.90
2018-06-12T23:54:52.130Z,68.50
2018-06-12T23:57:23.936Z,67.10
2018-06-12T23:59:55.438Z,67.00
